createdAt,value
2022-09-15T00:05:08.265Z,11.80
2022-09-15T00:15:08.251Z,11.80
2022-09-15T00:25:08.261Z,12.60
2022-09-15T00:35:08.255Z,12.60
2022-09-15T00:45:08.255Z,13.60
2022-09-15T00:55:08.260Z,14.50
2022-09-15T01:05:08.289Z,16.70
2022-09-15T01:15:08.314Z,15.80
2022-09-15T01:25:08.304Z,13.60
2022-09-15T01:35:08.269Z,10.10
2022-09-15T01:45:08.280Z,8.90
2022-09-15T01:55:08.314Z,8.30
2022-09-15T02:05:08.669Z,6.20
2022-09-15T02:15:08.298Z,5.90
2022-09-15T02:25:08.309Z,5.00
2022-09-15T02:35:08.315Z,4.90
2022-09-15T02:45:08.303Z,5.50
2022-09-15T02:55:08.313Z,5.20
2022-09-15T03:05:08.357Z,4.90
2022-09-15T03:15:08.315Z,4.40
2022-09-15T03:25:08.319Z,4.00
2022-09-15T03:35:08.316Z,3.50
2022-09-15T03:45:08.333Z,3.40
2022-09-15T03:55:08.334Z,4.60
2022-09-15T04:05:08.366Z,4.80
2022-09-15T04:15:08.332Z,6.20
2022-09-15T04:25:08.343Z,7.40
2022-09-15T04:35:08.344Z,7.10
2022-09-15T04:45:08.349Z,6.00
2022-09-15T04:55:08.349Z,6.00
2022-09-15T05:05:08.517Z,4.60
2022-09-15T05:15:08.356Z,4.30
2022-09-15T05:25:08.358Z,4.30
2022-09-15T05:35:08.374Z,4.10
2022-09-15T05:45:08.389Z,3.70
2022-09-15T05:55:08.383Z,4.00
2022-09-15T06:05:08.445Z,4.30
2022-09-15T06:15:08.380Z,4.40
2022-09-15T06:25:08.400Z,4.40
2022-09-15T06:35:08.394Z,5.10
2022-09-15T06:45:08.396Z,4.10
2022-09-15T06:55:08.399Z,4.10
2022-09-15T07:05:08.435Z,4.00
2022-09-15T07:15:08.415Z,3.30
2022-09-15T07:25:08.410Z,3.40
2022-09-15T07:35:08.420Z,3.60
2022-09-15T07:45:08.420Z,3.20
2022-09-15T07:55:08.424Z,3.40
2022-09-15T08:05:08.466Z,3.20
2022-09-15T08:15:08.526Z,2.30
2022-09-15T08:25:08.449Z,3.00
2022-09-15T08:35:08.437Z,2.70
2022-09-15T08:45:08.435Z,2.50
2022-09-15T08:55:08.449Z,2.50
2022-09-15T09:05:08.492Z,2.80
2022-09-15T09:15:08.456Z,2.80
2022-09-15T09:25:25.794Z,2.60
2022-09-15T09:35:08.463Z,2.40
2022-09-15T09:45:08.470Z,2.40
2022-09-15T09:55:08.467Z,2.10
2022-09-15T10:05:08.629Z,2.20
2022-09-15T10:15:08.479Z,2.80
2022-09-15T10:25:08.499Z,2.60
2022-09-15T10:35:08.482Z,2.90
2022-09-15T10:45:08.484Z,3.30
2022-09-15T10:55:08.502Z,2.80
2022-09-15T11:05:08.541Z,2.40
2022-09-15T11:15:08.516Z,2.80
2022-09-15T11:25:08.505Z,2.80
2022-09-15T11:35:08.506Z,2.50
2022-09-15T11:45:08.518Z,2.50
2022-09-15T11:55:08.515Z,2.90
2022-09-15T12:05:08.556Z,2.20
2022-09-15T12:15:08.529Z,1.80
2022-09-15T12:25:08.543Z,2.20
2022-09-15T12:35:13.349Z,3.00
2022-09-15T12:45:08.539Z,2.90
2022-09-15T12:55:08.549Z,3.10
2022-09-15T13:05:08.599Z,2.40
2022-09-15T13:15:08.754Z,2.30
2022-09-15T13:25:08.592Z,2.40
2022-09-15T13:35:15.687Z,2.70
2022-09-15T13:45:08.574Z,3.00
2022-09-15T13:55:08.589Z,3.20
2022-09-15T14:05:08.610Z,2.80
2022-09-15T14:15:08.580Z,3.10
2022-09-15T14:25:08.588Z,3.40
2022-09-15T14:35:08.594Z,3.10
2022-09-15T14:55:08.615Z,3.80
2022-09-15T15:05:08.641Z,3.70
2022-09-15T15:15:08.613Z,2.60
2022-09-15T15:25:08.623Z,3.00
2022-09-15T15:35:08.630Z,3.40
2022-09-15T15:45:08.627Z,3.30
2022-09-15T15:55:08.637Z,3.80
2022-09-15T16:05:08.669Z,3.20
2022-09-15T16:25:08.651Z,2.00
2022-09-15T16:35:08.653Z,1.40
2022-09-15T16:45:08.656Z,1.20
2022-09-15T16:55:08.663Z,1.80
2022-09-15T17:05:08.702Z,1.60
2022-09-15T17:15:08.657Z,1.60
2022-09-15T17:25:08.675Z,2.00
2022-09-15T17:35:08.692Z,1.50
2022-09-15T17:45:08.675Z,2.10
2022-09-15T17:55:08.707Z,2.30
2022-09-15T18:05:08.751Z,2.20
2022-09-15T18:15:08.791Z,2.70
2022-09-15T18:25:08.819Z,4.20
2022-09-15T18:45:44.336Z,8.00
2022-09-15T18:55:08.731Z,3.40
2022-09-15T19:05:08.755Z,8.10
2022-09-15T19:15:10.915Z,2.70
2022-09-15T19:25:08.915Z,3.50
2022-09-15T19:35:08.893Z,2.90
2022-09-15T19:45:09.047Z,2.80
2022-09-15T19:55:08.919Z,3.20
2022-09-15T20:05:09.076Z,2.20
2022-09-15T20:15:08.868Z,3.00
2022-09-15T20:25:08.827Z,2.90
2022-09-15T20:35:08.765Z,3.10
2022-09-15T20:45:08.761Z,3.40
2022-09-15T20:55:08.742Z,2.20
2022-09-15T21:05:08.784Z,3.30
2022-09-15T21:15:08.757Z,2.50
2022-09-15T21:25:08.770Z,3.00
2022-09-15T21:35:08.773Z,3.00
2022-09-15T21:45:08.757Z,3.10
2022-09-15T21:55:08.761Z,2.60
2022-09-15T22:05:08.811Z,3.10
2022-09-15T22:15:08.780Z,2.40
2022-09-15T22:25:08.778Z,2.80
2022-09-15T22:35:08.784Z,3.40
2022-09-15T22:45:08.789Z,2.10
2022-09-15T22:55:08.789Z,2.40
2022-09-15T23:05:08.834Z,2.20
2022-09-15T23:15:08.797Z,2.10
2022-09-15T23:25:08.800Z,2.40
2022-09-15T23:35:08.820Z,1.70
2022-09-15T23:45:08.815Z,2.40
2022-09-15T23:55:08.807Z,1.50
